Time;durP1;ratioP1;P1;durP2;ratioP2;P2;SDS_P1;SDS_P2;PMS_P1;PMS_P2;Temp;Humidity;BMP_temperature;BMP_pressure;BME280_temperature;BME280_humidity;BME280_pressure;Samples;Min_cycle;Max_cycle;Signal;HPM_P1;HPM_P2
2022/12/24 00:00:15;;;;;;;45.50;24.40;;;;;;;6.11;94.87;99457.45;107525;1253;81217;-58
2022/12/24 00:03:09;;;;;;;45.80;25.00;;;;;;;6.07;94.93;99450.69;107508;1253;81319;-58
2022/12/24 00:05:46;;;;;;;;;;;;;;;6.09;94.91;99450.77;107512;1253;95368;-58
2022/12/24 00:08:25;;;;;;;54.80;27.50;;;;;;;6.10;95.00;99453.71;107511;1253;87160;-58
2022/12/24 00:10:59;;;;;;;44.00;24.20;;;;;;;6.10;95.19;99454.36;107420;1253;94674;-58
2022/12/24 00:13:38;;;;;;;44.30;24.70;;;;;;;6.06;95.07;99454.52;107562;1253;80897;-59
2022/12/24 00:16:21;;;;;;;58.70;30.00;;;;;;;6.11;95.07;99454.08;107583;1253;82202;-57
2022/12/24 00:19:04;;;;;;;59.10;31.10;;;;;;;6.12;95.03;99451.67;107510;1253;96560;-56
2022/12/24 00:21:48;;;;;;;53.80;28.00;;;;;;;6.08;95.13;99449.39;107546;1253;86192;-58
2022/12/24 00:24:25;;;;;;;50.70;28.30;;;;;;;6.08;95.06;99444.41;107562;1253;94802;-57
2022/12/24 00:27:00;;;;;;;59.30;28.60;;;;;;;6.10;95.11;99449.58;107577;1253;80628;-59
2022/12/24 00:29:37;;;;;;;54.10;28.50;;;;;;;6.08;95.20;99443.90;107556;1254;81538;-59
2022/12/24 00:32:12;;;;;;;50.80;27.00;;;;;;;6.11;95.35;99451.37;107626;1251;95580;-58
2022/12/24 00:34:47;;;;;;;53.60;28.10;;;;;;;6.09;95.13;99453.83;107701;1251;87906;-55
2022/12/24 00:37:23;;;;;;;51.40;25.20;;;;;;;6.07;95.07;99455.52;107605;1253;95196;-57
2022/12/24 00:40:02;;;;;;;51.40;27.40;;;;;;;6.05;95.12;99451.77;107659;1253;81778;-58
2022/12/24 00:42:42;;;;;;;51.20;25.90;;;;;;;6.00;95.34;99452.94;107604;1255;82056;-58
2022/12/24 00:45:25;;;;;;;48.70;24.90;;;;;;;6.00;95.39;99452.03;107575;1251;98761;-59
2022/12/24 00:48:05;;;;;;;45.60;24.90;;;;;;;5.95;95.34;99454.35;107613;1251;88128;-59
2022/12/24 00:50:40;;;;;;;46.00;25.10;;;;;;;5.88;95.36;99453.39;107599;1251;93299;-53
2022/12/24 00:53:18;;;;;;;;;;;;;;;5.94;95.46;99450.01;107679;1254;80978;-59
2022/12/24 00:55:57;;;;;;;49.40;24.10;;;;;;;5.98;95.47;99450.45;107573;1251;81761;-56
2022/12/24 00:58:31;;;;;;;51.90;26.90;;;;;;;6.02;95.19;99450.70;107627;1251;98419;-56
2022/12/24 01:01:08;;;;;;;52.90;25.80;;;;;;;6.04;95.04;99443.45;107640;1254;88420;-58
2022/12/24 01:03:49;;;;;;;;;;;;;;;6.02;95.19;99441.59;107630;1253;96020;-58
2022/12/24 01:06:25;;;;;;;47.80;25.60;;;;;;;6.01;95.22;99436.71;107647;1251;79420;-60
2022/12/24 01:09:12;;;;;;;;;;;;;;;6.04;95.15;99430.29;107684;1254;82831;-58
2022/12/24 01:11:55;;;;;;;46.80;26.50;;;;;;;6.06;95.32;99426.23;107685;1255;99605;-59
2022/12/24 01:14:42;;;;;;;48.30;25.50;;;;;;;6.04;95.22;99425.65;107656;1255;88296;-59
2022/12/24 01:17:18;;;;;;;51.50;27.00;;;;;;;5.99;95.26;99438.77;107652;1254;94128;-58
2022/12/24 01:19:54;;;;;;;48.40;25.60;;;;;;;6.00;95.25;99449.48;107617;1255;80740;-59
2022/12/24 01:22:34;;;;;;;48.30;25.90;;;;;;;6.05;95.09;99450.34;107653;1253;81506;-58
2022/12/24 01:25:12;;;;;;;44.10;25.30;;;;;;;6.06;95.10;99450.02;107633;1251;98963;-58
2022/12/24 01:27:47;;;;;;;45.60;25.10;;;;;;;6.08;95.03;99443.90;107628;1255;89532;-58
2022/12/24 01:30:24;;;;;;;51.80;27.30;;;;;;;6.07;95.07;99446.20;107621;1251;94749;-56
2022/12/24 01:33:01;;;;;;;46.40;25.20;;;;;;;6.07;94.98;99446.16;107590;1251;78774;-58
2022/12/24 01:35:43;;;;;;;50.00;28.90;;;;;;;6.06;95.05;99448.58;107597;1251;82366;-58
2022/12/24 01:38:18;;;;;;;55.60;29.20;;;;;;;6.02;95.16;99444.77;107622;1255;98211;-53
2022/12/24 01:43:57;;;;;;;53.40;26.80;;;;;;;6.00;94.98;99445.02;106418;1253;1605632;-59
2022/12/24 01:46:33;;;;;;;59.60;27.80;;;;;;;6.01;94.93;99452.95;107618;1255;81353;-59
2022/12/24 01:49:17;;;;;;;50.20;26.10;;;;;;;6.00;94.89;99455.02;107653;1252;82886;-57
2022/12/24 01:51:56;;;;;;;53.20;27.00;;;;;;;5.97;95.22;99456.98;107593;1255;97586;-57
2022/12/24 01:54:38;;;;;;;53.10;27.40;;;;;;;5.95;95.11;99459.05;107621;1251;87125;-59
2022/12/24 01:57:23;;;;;;;56.70;26.40;;;;;;;5.93;95.22;99461.52;107583;1254;94973;-60
2022/12/24 02:00:02;;;;;;;49.50;26.00;;;;;;;5.93;95.21;99465.37;107620;1251;81647;-57
2022/12/24 02:02:46;;;;;;;56.20;28.20;;;;;;;5.99;95.31;99464.64;107639;1250;82833;-58
2022/12/24 02:05:39;;;;;;;50.20;26.20;;;;;;;6.00;95.20;99464.36;107627;1251;97049;-57
2022/12/24 02:08:22;;;;;;;52.00;26.90;;;;;;;5.99;95.17;99462.36;107620;1251;89438;-57
2022/12/24 02:11:04;;;;;;;59.70;27.60;;;;;;;5.98;95.12;99465.98;107677;1251;92229;-58
2022/12/24 02:13:47;;;;;;;58.50;27.40;;;;;;;5.99;95.24;99457.74;107685;1254;82331;-58
2022/12/24 02:16:39;;;;;;;56.10;28.40;;;;;;;6.00;95.46;99455.13;107635;1251;81108;-58
2022/12/24 02:19:47;;;;;;;53.70;27.70;;;;;;;6.03;95.46;99451.33;107662;1256;98845;-58
2022/12/24 02:22:36;;;;;;;53.40;26.90;;;;;;;6.02;95.17;99450.36;107570;1251;88653;-59
2022/12/24 02:25:47;;;;;;;53.70;25.70;;;;;;;6.04;95.28;99450.70;107591;1250;94350;-58
2022/12/24 02:28:43;;;;;;;48.90;25.20;;;;;;;6.07;95.24;99449.91;107605;1254;81638;-59
2022/12/24 02:31:32;;;;;;;54.50;26.90;;;;;;;6.04;95.29;99451.89;107651;1255;83051;-58
2022/12/24 02:34:22;;;;;;;55.60;28.30;;;;;;;6.01;95.31;99454.40;107628;1251;99291;-58
2022/12/24 02:37:05;;;;;;;54.20;27.90;;;;;;;6.02;95.44;99454.45;107603;1255;87734;-59
2022/12/24 02:39:47;;;;;;;51.20;26.50;;;;;;;6.01;95.42;99456.14;107599;1250;94725;-56
2022/12/24 02:42:27;;;;;;;52.00;25.90;;;;;;;6.00;95.50;99451.46;107623;1251;82572;-54
2022/12/24 02:45:12;;;;;;;49.50;25.70;;;;;;;5.99;95.38;99445.88;107635;1251;80463;-58
2022/12/24 02:47:58;;;;;;;51.10;26.50;;;;;;;5.96;95.49;99445.50;107646;1251;99174;-58
2022/12/24 02:50:43;;;;;;;49.10;25.90;;;;;;;6.01;95.46;99446.23;105423;1254;3013088;-54
2022/12/24 02:53:22;;;;;;;52.80;25.90;;;;;;;6.03;95.41;99449.69;107609;1254;95759;-58
2022/12/24 02:56:35;;;;;;;47.20;25.50;;;;;;;6.01;95.39;99451.19;107620;1251;81370;-57
2022/12/24 02:59:39;;;;;;;46.90;25.50;;;;;;;6.01;95.46;99454.60;107658;1250;81660;-58
2022/12/24 03:02:23;;;;;;;;;;;;;;;5.99;95.41;99452.35;107628;1251;98240;-57
2022/12/24 03:05:10;;;;;;;43.60;23.30;;;;;;;6.00;95.36;99450.95;107679;1251;88310;-57
2022/12/24 03:07:57;;;;;;;47.80;25.00;;;;;;;6.00;95.30;99455.41;107568;1251;95909;-57
2022/12/24 03:10:46;;;;;;;39.60;22.30;;;;;;;6.01;95.40;99459.59;107594;1251;79842;-58
2022/12/24 03:13:27;;;;;;;44.60;23.00;;;;;;;6.00;95.53;99457.85;107575;1250;82166;-51
2022/12/24 03:16:04;;;;;;;44.60;22.90;;;;;;;5.97;95.52;99463.62;107614;1251;98996;-54
2022/12/24 03:18:49;;;;;;;44.20;23.90;;;;;;;5.91;95.55;99465.06;107632;1255;88107;-52
2022/12/24 03:21:31;;;;;;;45.30;23.00;;;;;;;5.89;95.70;99466.52;107636;1251;93185;-58
2022/12/24 03:24:10;;;;;;;43.40;23.10;;;;;;;5.85;95.68;99462.86;107633;1254;79059;-58
2022/12/24 03:26:49;;;;;;;38.40;20.80;;;;;;;5.90;95.68;99464.34;107625;1251;82969;-58
2022/12/24 03:29:24;;;;;;;37.90;21.70;;;;;;;5.89;95.55;99458.67;107653;1251;98134;-58
2022/12/24 03:32:04;;;;;;;;;;;;;;;5.90;95.65;99457.90;107609;1251;89019;-57
2022/12/24 03:34:46;;;;;;;35.60;20.80;;;;;;;5.89;95.68;99461.93;107572;1252;94325;-56
2022/12/24 03:37:23;;;;;;;35.50;21.00;;;;;;;5.86;95.51;99465.27;107617;1254;82072;-57
2022/12/24 03:40:02;;;;;;;36.10;21.40;;;;;;;5.91;95.48;99462.13;107670;1250;82923;-57
2022/12/24 03:42:42;;;;;;;38.00;21.50;;;;;;;5.88;95.41;99460.72;107579;1254;99210;-59
2022/12/24 03:45:23;;;;;;;33.80;20.80;;;;;;;5.86;95.42;99460.14;107630;1257;89253;-57
2022/12/24 03:48:05;;;;;;;35.20;21.10;;;;;;;5.87;95.65;99461.58;107670;1255;94556;-56
2022/12/24 03:50:40;;;;;;;35.20;22.00;;;;;;;5.90;95.52;99463.92;107621;1251;81190;-58
2022/12/24 03:53:16;;;;;;;;;;;;;;;5.90;95.57;99469.08;107681;1254;83372;-59
2022/12/24 03:55:59;;;;;;;32.20;21.10;;;;;;;5.89;95.58;99471.58;107640;1251;98445;-59
2022/12/24 03:58:37;;;;;;;32.90;19.90;;;;;;;5.90;95.44;99474.11;107665;1251;88318;-58
2022/12/24 04:01:19;;;;;;;28.80;18.00;;;;;;;5.87;95.56;99473.55;107569;1251;95948;-56
2022/12/24 04:03:57;;;;;;;31.80;20.10;;;;;;;5.82;95.53;99480.88;107624;1253;79958;-58
2022/12/24 04:06:37;;;;;;;32.30;19.80;;;;;;;5.81;95.59;99473.55;107674;1251;82746;-57
2022/12/24 04:09:17;;;;;;;30.00;17.60;;;;;;;5.84;95.62;99473.91;107604;1251;99316;-50
2022/12/24 04:11:54;;;;;;;30.30;19.40;;;;;;;5.87;95.60;99473.60;107605;1254;88579;-55
2022/12/24 04:14:31;;;;;;;26.70;16.20;;;;;;;5.85;95.66;99469.28;107627;1251;95670;-53
2022/12/24 04:17:11;;;;;;;29.50;18.00;;;;;;;5.82;95.56;99468.23;107639;1251;82342;-57
2022/12/24 04:19:47;;;;;;;28.40;17.50;;;;;;;5.80;95.40;99467.02;107646;1251;80830;-58
2022/12/24 04:22:24;;;;;;;26.70;16.60;;;;;;;5.79;95.72;99474.52;107639;1254;99189;-58
2022/12/24 04:25:08;;;;;;;26.10;16.90;;;;;;;5.80;95.61;99464.32;107611;1251;88763;-58
2022/12/24 04:27:53;;;;;;;28.40;18.00;;;;;;;5.78;95.56;99461.76;107619;1251;95558;-60
2022/12/24 04:30:35;;;;;;;26.40;15.70;;;;;;;5.78;95.64;99460.85;107641;1253;82509;-55
2022/12/24 04:33:19;;;;;;;23.60;15.20;;;;;;;5.80;95.55;99462.23;107655;1251;82471;-58
2022/12/24 04:35:56;;;;;;;20.80;14.70;;;;;;;5.78;95.44;99466.92;107688;1251;98788;-57
2022/12/24 04:38:34;;;;;;;22.20;14.60;;;;;;;5.77;95.58;99470.06;107679;1251;89381;-57
2022/12/24 04:41:17;;;;;;;20.80;14.30;;;;;;;5.70;95.66;99472.31;107631;1251;94028;-58
2022/12/24 04:44:01;;;;;;;22.50;14.10;;;;;;;5.64;95.61;99469.70;107668;1251;81858;-57
2022/12/24 04:46:43;;;;;;;24.40;15.80;;;;;;;5.59;95.77;99468.66;107638;1251;82747;-59
2022/12/24 04:49:25;;;;;;;23.80;15.80;;;;;;;5.56;95.92;99467.25;107625;1251;99595;-58
2022/12/24 04:52:05;;;;;;;20.30;13.80;;;;;;;5.59;95.70;99470.64;107654;1252;86866;-58
2022/12/24 04:54:44;;;;;;;20.60;13.50;;;;;;;5.58;95.73;99471.11;107643;1251;94909;-57
2022/12/24 04:57:23;;;;;;;22.60;15.30;;;;;;;5.61;95.77;99477.79;107599;1254;81530;-57
2022/12/24 05:00:07;;;;;;;22.60;15.10;;;;;;;5.59;95.69;99481.88;107634;1251;82904;-57
2022/12/24 05:02:41;;;;;;;18.70;13.20;;;;;;;5.59;95.61;99483.66;107643;1251;98283;-49
2022/12/24 05:05:20;;;;;;;18.90;13.50;;;;;;;5.47;95.74;99485.83;107646;1251;88163;-59
2022/12/24 05:07:58;;;;;;;21.70;14.80;;;;;;;5.50;95.76;99483.50;107593;1251;93777;-54
2022/12/24 05:10:37;;;;;;;22.80;15.40;;;;;;;5.53;95.82;99484.92;107637;1251;80370;-58
2022/12/24 05:13:20;;;;;;;23.20;16.00;;;;;;;5.51;95.81;99485.67;107617;1251;82036;-58
2022/12/24 05:16:00;;;;;;;24.80;16.70;;;;;;;5.50;95.91;99485.27;107629;1254;97937;-55
2022/12/24 05:18:45;;;;;;;23.10;16.00;;;;;;;5.52;96.11;99486.14;107639;1251;88380;-58
2022/12/24 05:21:28;;;;;;;22.80;15.20;;;;;;;5.56;95.86;99482.82;107648;1251;94894;-59
2022/12/24 05:27:12;;;;;;;19.30;12.90;;;;;;;5.48;95.88;99486.33;107696;1251;83473;-57
2022/12/24 05:29:59;;;;;;;21.40;13.10;;;;;;;5.43;95.99;99481.68;107689;1251;98347;-58
2022/12/24 05:32:43;;;;;;;21.50;14.00;;;;;;;5.43;96.08;99483.70;107675;1251;88613;-56
2022/12/24 05:35:21;;;;;;;22.90;14.60;;;;;;;5.42;96.16;99486.27;107656;1254;95489;-57
2022/12/24 05:38:06;;;;;;;21.80;13.40;;;;;;;5.43;96.00;99484.36;107638;1251;80321;-56
2022/12/24 05:40:43;;;;;;;25.50;14.30;;;;;;;5.44;96.10;99489.65;107643;1251;82093;-57
2022/12/24 05:43:21;;;;;;;22.00;13.80;;;;;;;5.41;96.24;99491.41;107591;1251;98390;-57
2022/12/24 05:46:01;;;;;;;24.50;14.20;;;;;;;5.40;96.04;99498.40;107619;1251;88812;-57
2022/12/24 05:48:47;;;;;;;23.00;13.50;;;;;;;5.35;96.20;99505.92;107578;1251;95551;-57
2022/12/24 05:51:25;;;;;;;26.60;15.30;;;;;;;5.37;96.19;99505.55;107615;1251;81627;-57
2022/12/24 05:54:02;;;;;;;22.80;14.30;;;;;;;5.37;96.19;99503.20;107622;1251;81400;-58
2022/12/24 05:56:40;;;;;;;23.90;12.60;;;;;;;5.40;96.01;99506.65;107582;1251;96009;-59
2022/12/24 05:59:19;;;;;;;22.50;14.10;;;;;;;5.42;95.98;99506.29;107625;1251;88792;-59
2022/12/24 06:02:00;;;;;;;21.80;12.50;;;;;;;5.44;96.08;99505.71;107605;1255;94891;-60
2022/12/24 06:04:45;;;;;;;22.80;13.60;;;;;;;5.37;96.10;99509.82;107669;1251;80561;-57
2022/12/24 06:07:24;;;;;;;23.30;13.30;;;;;;;5.34;96.12;99509.06;107663;1251;82226;-57
2022/12/24 06:10:05;;;;;;;23.90;13.00;;;;;;;5.35;96.14;99510.80;107670;1251;99299;-58
2022/12/24 06:12:41;;;;;;;22.10;12.50;;;;;;;5.38;96.17;99512.12;107726;1251;88433;-56
2022/12/24 06:15:22;;;;;;;22.10;13.30;;;;;;;5.42;96.07;99511.41;107669;1251;94476;-58
2022/12/24 06:18:04;;;;;;;23.30;13.80;;;;;;;5.43;96.08;99511.35;107692;1251;82554;-58
2022/12/24 06:20:47;;;;;;;21.80;12.70;;;;;;;5.42;96.12;99514.66;107681;1251;82578;-57
2022/12/24 06:23:32;;;;;;;24.20;13.60;;;;;;;5.37;96.19;99518.38;107650;1251;98122;-57
2022/12/24 06:26:12;;;;;;;22.90;13.80;;;;;;;5.34;96.14;99518.96;107642;1251;89389;-57
2022/12/24 06:28:54;;;;;;;24.30;13.50;;;;;;;5.28;96.19;99516.72;107640;1251;93293;-57
2022/12/24 06:31:39;;;;;;;24.00;13.80;;;;;;;5.25;96.14;99520.70;107623;1251;80675;-56
2022/12/24 06:34:24;;;;;;;21.30;13.10;;;;;;;5.27;96.21;99521.15;107644;1251;83264;-57
2022/12/24 06:37:04;;;;;;;24.50;13.40;;;;;;;5.30;96.00;99528.83;107632;1251;99152;-58
2022/12/24 06:39:46;;;;;;;24.70;13.90;;;;;;;5.25;96.13;99532.98;107641;1250;87705;-59
2022/12/24 06:42:31;;;;;;;25.80;13.50;;;;;;;5.25;96.17;99532.48;107629;1254;95587;-57
2022/12/24 06:45:10;;;;;;;24.10;13.30;;;;;;;5.21;96.34;99536.11;107639;1251;80659;-57
2022/12/24 06:47:47;;;;;;;26.90;14.50;;;;;;;5.26;96.18;99538.14;107629;1251;83017;-56
2022/12/24 06:50:29;;;;;;;23.90;13.10;;;;;;;5.31;96.17;99541.91;107653;1251;97007;-59
2022/12/24 06:53:16;;;;;;;27.20;14.20;;;;;;;5.28;96.07;99542.70;107644;1251;88478;-58
2022/12/24 06:56:03;;;;;;;24.20;13.00;;;;;;;5.21;96.11;99541.83;107635;1251;95477;-57
2022/12/24 06:58:41;;;;;;;25.70;13.60;;;;;;;5.15;96.37;99545.13;107632;1251;81910;-57
2022/12/24 07:01:23;;;;;;;26.10;14.10;;;;;;;5.19;96.32;99546.57;107747;1250;81580;-58
2022/12/24 07:04:06;;;;;;;24.50;12.90;;;;;;;5.16;96.30;99543.91;107703;1251;99242;-57
2022/12/24 07:06:47;;;;;;;25.50;14.00;;;;;;;5.18;96.31;99547.92;107657;1251;89698;-56
2022/12/24 07:09:24;;;;;;;26.60;14.30;;;;;;;5.14;96.49;99553.02;107696;1250;95308;-49
2022/12/24 07:12:02;;;;;;;26.40;13.60;;;;;;;5.15;96.44;99555.80;107623;1251;81932;-54
2022/12/24 07:14:38;;;;;;;25.20;14.20;;;;;;;5.19;96.26;99561.19;107674;1250;82545;-58
2022/12/24 07:17:23;;;;;;;26.30;14.70;;;;;;;5.17;96.37;99561.80;107669;1251;99052;-59
2022/12/24 07:20:00;;;;;;;;;;;;;;;5.14;96.44;99564.80;107678;1251;88495;-59
2022/12/24 07:22:39;;;;;;;28.50;14.60;;;;;;;5.18;96.45;99567.06;107616;1250;93383;-58
2022/12/24 07:25:14;;;;;;;29.50;14.90;;;;;;;5.22;96.30;99572.62;107629;1251;82125;-57
2022/12/24 07:27:53;;;;;;;29.10;15.70;;;;;;;5.19;96.37;99575.61;107674;1251;82643;-61
2022/12/24 07:30:31;;;;;;;27.50;16.40;;;;;;;5.24;96.31;99577.73;107583;1251;97582;-58
2022/12/24 07:33:09;;;;;;;28.80;15.90;;;;;;;5.21;96.31;99579.48;107632;1251;87280;-55
2022/12/24 07:35:49;;;;;;;32.40;17.30;;;;;;;5.22;96.25;99583.50;107562;1251;94741;-59
2022/12/24 07:38:28;;;;;;;25.10;15.00;;;;;;;5.22;96.38;99591.54;107660;1251;82026;-58
2022/12/24 07:41:07;;;;;;;26.60;14.70;;;;;;;5.25;96.33;99589.98;107652;1251;81798;-57
2022/12/24 07:43:51;;;;;;;28.40;15.00;;;;;;;5.20;96.42;99596.50;107596;1251;98907;-58
2022/12/24 07:46:32;;;;;;;23.90;13.70;;;;;;;5.20;96.58;99600.41;107660;1251;88701;-55
2022/12/24 07:49:12;;;;;;;26.20;14.20;;;;;;;5.20;96.45;99597.36;107638;1251;95959;-58
2022/12/24 07:51:55;;;;;;;24.40;13.00;;;;;;;5.17;96.32;99599.39;107680;1251;81182;-53
2022/12/24 07:54:36;;;;;;;22.90;13.00;;;;;;;5.16;96.36;99606.93;107709;1251;80657;-57
2022/12/24 07:57:20;;;;;;;24.90;13.60;;;;;;;5.19;96.19;99604.89;107677;1251;99514;-56
2022/12/24 08:00:03;;;;;;;26.90;13.70;;;;;;;5.12;96.30;99609.98;107726;1254;88329;-58
2022/12/24 08:02:43;;;;;;;21.90;12.80;;;;;;;5.20;96.39;99608.09;107675;1254;94894;-59
2022/12/24 08:05:23;;;;;;;22.20;13.10;;;;;;;5.24;96.27;99614.15;107684;1251;82308;-56
2022/12/24 08:08:08;;;;;;;22.60;12.60;;;;;;;5.25;96.24;99617.59;107632;1254;82126;-55
2022/12/24 08:10:50;;;;;;;23.90;13.90;;;;;;;5.21;96.30;99618.09;107609;1251;98886;-59
2022/12/24 08:13:27;;;;;;;23.50;14.40;;;;;;;5.21;96.26;99619.21;107639;1251;87235;-56
2022/12/24 08:16:07;;;;;;;22.00;12.80;;;;;;;5.23;96.29;99618.44;107620;1251;94788;-58
2022/12/24 08:18:46;;;;;;;19.80;11.80;;;;;;;5.26;96.26;99613.97;107668;1251;81517;-58
2022/12/24 08:21:28;;;;;;;21.20;11.50;;;;;;;5.24;96.33;99613.69;107626;1251;83437;-58
2022/12/24 08:24:06;;;;;;;17.50;10.20;;;;;;;5.24;96.18;99623.27;107682;1250;97617;-58
2022/12/24 08:26:47;;;;;;;21.40;11.70;;;;;;;5.25;96.14;99628.00;107667;1251;88905;-52
2022/12/24 08:29:30;;;;;;;20.20;11.90;;;;;;;5.24;96.15;99630.91;107650;1251;93815;-55
2022/12/24 08:32:08;;;;;;;21.30;12.30;;;;;;;5.29;96.15;99629.46;107628;1250;81988;-57
2022/12/24 08:34:44;;;;;;;21.60;11.70;;;;;;;5.33;96.07;99629.23;107641;1251;82565;-57
2022/12/24 08:37:21;;;;;;;18.00;10.30;;;;;;;5.42;96.00;99635.77;107677;1251;99161;-57
2022/12/24 08:39:59;;;;;;;19.60;11.90;;;;;;;5.36;96.03;99641.52;107748;1251;87672;-48
2022/12/24 08:42:39;;;;;;;19.50;11.70;;;;;;;5.28;96.17;99644.09;107681;1251;94522;-57
2022/12/24 08:45:15;;;;;;;19.40;12.20;;;;;;;5.27;96.06;99649.39;107673;1250;81249;-62
2022/12/24 08:47:50;;;;;;;19.20;11.40;;;;;;;5.28;96.01;99651.91;107650;1251;82772;-56
2022/12/24 08:50:28;;;;;;;21.00;12.50;;;;;;;5.30;96.11;99654.36;107666;1254;97199;-59
2022/12/24 08:53:11;;;;;;;20.60;12.50;;;;;;;5.36;96.25;99652.18;107644;1251;88698;-58
2022/12/24 08:55:53;;;;;;;22.10;12.80;;;;;;;5.45;96.13;99652.85;107631;1251;93402;-58
2022/12/24 08:58:33;;;;;;;22.30;13.80;;;;;;;5.50;96.10;99652.95;107627;1250;82016;-63
2022/12/24 09:01:17;;;;;;;20.70;12.30;;;;;;;5.53;95.93;99655.69;107637;1250;82514;-62
2022/12/24 09:03:56;;;;;;;20.20;13.00;;;;;;;5.52;95.95;99658.27;107609;1251;95625;-50
2022/12/24 09:06:36;;;;;;;24.60;14.40;;;;;;;5.50;96.10;99662.99;107669;1251;88143;-58
2022/12/24 09:09:16;;;;;;;23.70;13.80;;;;;;;5.48;96.15;99663.08;107568;1251;95522;-58
2022/12/24 09:11:53;;;;;;;21.80;12.80;;;;;;;5.62;96.10;99661.84;107697;1251;81707;-58
2022/12/24 09:14:30;;;;;;;22.70;13.10;;;;;;;5.69;96.01;99661.83;107679;1251;83020;-57
2022/12/24 09:17:09;;;;;;;22.60;13.10;;;;;;;5.65;95.94;99667.35;107719;1254;97756;-55
2022/12/24 09:19:47;;;;;;;18.60;11.50;;;;;;;5.65;95.61;99671.95;107661;1250;89486;-53
2022/12/24 09:22:29;;;;;;;21.80;13.70;;;;;;;5.61;95.65;99674.00;107650;1251;95794;-60
2022/12/24 09:25:07;;;;;;;21.80;12.80;;;;;;;5.62;95.63;99674.44;107652;1251;80825;-62
2022/12/24 09:27:45;;;;;;;19.10;12.60;;;;;;;5.63;95.60;99676.13;107669;1251;83331;-63
2022/12/24 09:30:20;;;;;;;21.20;13.20;;;;;;;5.66;95.73;99680.27;107603;1251;97397;-59
2022/12/24 09:33:00;;;;;;;20.20;12.90;;;;;;;5.68;95.68;99684.98;107666;1251;89434;-59
2022/12/24 09:35:34;;;;;;;21.00;12.70;;;;;;;5.65;95.55;99686.63;107677;1251;95542;-59
2022/12/24 09:38:14;;;;;;;24.20;13.90;;;;;;;5.55;95.78;99688.20;107643;1252;80927;-59
2022/12/24 09:40:58;;;;;;;21.40;13.00;;;;;;;5.52;95.80;99691.56;107660;1251;82793;-59
2022/12/24 09:43:36;;;;;;;23.90;13.90;;;;;;;5.56;95.51;99693.67;107409;1251;264720;-59
2022/12/24 09:46:22;;;;;;;22.90;13.50;;;;;;;5.58;95.57;99699.16;107666;1251;87579;-63
2022/12/24 09:49:04;;;;;;;24.70;13.70;;;;;;;5.59;95.62;99698.84;107627;1251;92690;-63
2022/12/24 09:51:44;;;;;;;23.40;13.50;;;;;;;5.56;95.59;99697.42;107648;1251;81118;-57
2022/12/24 09:54:32;;;;;;;24.10;14.50;;;;;;;5.62;95.54;99695.48;107647;1251;82894;-60
2022/12/24 09:57:23;;;;;;;23.60;14.00;;;;;;;5.68;95.40;99697.20;107683;1250;97904;-62
2022/12/24 09:59:58;;;;;;;24.00;13.80;;;;;;;5.69;95.42;99699.91;107648;1251;88592;-59
2022/12/24 10:02:40;;;;;;;24.40;15.00;;;;;;;5.72;95.37;99704.75;107665;1252;94816;-59
2022/12/24 10:05:26;;;;;;;24.00;14.20;;;;;;;5.68;95.48;99711.64;107696;1251;81032;-60
2022/12/24 10:08:17;;;;;;;25.30;14.60;;;;;;;5.60;95.56;99723.30;107705;1251;81639;-61
2022/12/24 10:11:01;;;;;;;21.50;13.50;;;;;;;5.65;95.20;99721.64;107657;1251;99195;-61
2022/12/24 10:13:56;;;;;;;24.00;15.00;;;;;;;5.64;95.18;99722.11;107634;1251;88635;-61
2022/12/24 10:16:47;;;;;;;25.80;14.90;;;;;;;5.68;95.17;99723.59;107650;1251;95697;-59
2022/12/24 10:19:33;;;;;;;25.30;13.90;;;;;;;5.67;95.16;99721.64;107678;1251;81127;-60
2022/12/24 10:22:24;;;;;;;25.70;14.80;;;;;;;5.65;95.13;99726.13;107664;1250;82802;-60
2022/12/24 10:25:10;;;;;;;23.60;14.40;;;;;;;5.66;95.10;99730.31;107700;1251;99046;-60
2022/12/24 10:27:57;;;;;;;25.50;14.80;;;;;;;5.70;95.11;99729.45;107630;1251;88497;-60
2022/12/24 10:30:32;;;;;;;24.70;14.30;;;;;;;5.75;95.05;99738.54;107615;1251;94035;-57
2022/12/24 10:33:28;;;;;;;24.90;15.90;;;;;;;5.69;95.20;99739.16;107638;1251;81118;-58
2022/12/24 10:36:09;;;;;;;26.50;16.70;;;;;;;5.69;95.14;99746.91;107635;1254;83280;-61
2022/12/24 10:38:47;;;;;;;23.50;15.60;;;;;;;5.62;95.04;99750.32;107681;1251;95891;-60
2022/12/24 10:41:27;;;;;;;24.00;15.30;;;;;;;5.57;95.16;99756.09;107655;1251;88352;-58
2022/12/24 10:44:02;;;;;;;26.10;16.50;;;;;;;5.59;94.99;99753.00;107634;1251;95115;-60
2022/12/24 10:46:40;;;;;;;25.60;15.40;;;;;;;5.59;95.08;99752.67;107705;1251;80285;-56
2022/12/24 10:49:25;;;;;;;24.90;15.00;;;;;;;5.63;95.11;99751.86;107696;1251;82278;-61
2022/12/24 10:52:12;;;;;;;24.60;15.00;;;;;;;5.71;94.95;99758.45;107673;1251;99384;-57
2022/12/24 10:55:12;;;;;;;25.90;16.80;;;;;;;5.71;95.12;99764.71;107726;1251;88561;-60
2022/12/24 10:57:57;;;;;;;24.20;15.80;;;;;;;5.67;95.14;99765.80;107642;1251;94410;-55
2022/12/24 11:00:36;;;;;;;;;;;;;;;5.66;95.06;99768.52;107716;1251;82555;-59
2022/12/24 11:03:29;;;;;;;30.00;16.80;;;;;;;5.70;95.08;99769.05;107707;1251;82141;-59
2022/12/24 11:06:19;;;;;;;25.70;16.20;;;;;;;5.72;94.88;99767.59;107680;1253;97822;-61
2022/12/24 11:09:21;;;;;;;26.20;16.40;;;;;;;5.72;94.77;99771.91;107694;1251;89280;-60
2022/12/24 11:11:58;;;;;;;28.10;17.40;;;;;;;5.75;94.90;99770.48;107669;1250;94811;-60
2022/12/24 11:14:37;;;;;;;29.50;18.00;;;;;;;5.75;94.80;99773.31;107713;1251;82240;-59
2022/12/24 11:17:23;;;;;;;28.90;17.80;;;;;;;5.75;94.73;99776.73;107658;1254;83178;-59
2022/12/24 11:20:03;;;;;;;30.30;18.70;;;;;;;5.73;94.86;99776.41;107632;1254;98005;-57
2022/12/24 11:22:44;;;;;;;29.50;17.80;;;;;;;5.67;94.59;99778.33;107687;1251;87986;-60
2022/12/24 11:25:30;;;;;;;31.50;18.80;;;;;;;5.63;94.68;99780.66;107663;1251;93375;-59
2022/12/24 11:28:27;;;;;;;27.20;17.30;;;;;;;5.61;94.65;99785.32;107607;1251;81601;-62
2022/12/24 11:31:19;;;;;;;28.80;17.80;;;;;;;5.54;94.61;99788.41;107644;1250;83354;-58
2022/12/24 11:33:59;;;;;;;29.60;17.20;;;;;;;5.49;94.78;99795.27;107622;1251;98252;-61
2022/12/24 11:36:37;;;;;;;26.00;17.20;;;;;;;5.55;94.66;99798.73;107695;1250;87778;-60
2022/12/24 11:39:21;;;;;;;27.40;18.60;;;;;;;5.55;94.69;99798.52;107709;1251;95316;-61
2022/12/24 11:42:04;;;;;;;28.00;17.20;;;;;;;5.58;94.63;99802.90;107672;1251;82177;-62
2022/12/24 11:44:51;;;;;;;26.90;16.00;;;;;;;5.62;94.57;99808.09;107665;1251;82759;-60
2022/12/24 11:47:42;;;;;;;28.90;17.60;;;;;;;5.63;94.66;99811.50;107704;1251;98634;-60
2022/12/24 11:50:30;;;;;;;27.10;17.10;;;;;;;5.60;94.58;99818.52;107694;1251;88318;-60
2022/12/24 11:53:14;;;;;;;25.90;16.00;;;;;;;5.62;94.45;99815.73;107691;1251;93556;-61
2022/12/24 11:55:53;;;;;;;28.20;16.20;;;;;;;5.63;94.48;99815.05;107675;1254;80087;-61
2022/12/24 11:58:39;;;;;;;29.80;18.40;;;;;;;5.69;94.46;99820.70;107620;1250;82434;-62
2022/12/24 12:01:23;;;;;;;29.20;17.50;;;;;;;5.72;94.40;99823.02;107618;1251;99290;-59
2022/12/24 12:04:05;;;;;;;29.30;17.00;;;;;;;5.70;94.42;99832.38;107602;1251;87544;-60
2022/12/24 12:06:50;;;;;;;28.30;17.80;;;;;;;5.72;94.43;99832.30;107631;1251;93573;-60
2022/12/24 12:09:33;;;;;;;28.10;17.50;;;;;;;5.78;94.54;99837.11;107643;1254;80023;-60
2022/12/24 12:12:18;;;;;;;29.40;18.60;;;;;;;5.79;94.49;99835.36;107612;1251;81182;-59
2022/12/24 12:15:03;;;;;;;32.50;19.40;;;;;;;5.82;94.47;99837.00;107617;1251;98653;-59
2022/12/24 12:17:52;;;;;;;28.70;17.70;;;;;;;5.83;94.52;99840.27;107625;1251;88434;-60
2022/12/24 12:20:34;;;;;;;30.50;18.50;;;;;;;5.83;94.64;99844.03;107657;1251;93320;-59
2022/12/24 12:23:17;;;;;;;34.30;19.10;;;;;;;5.87;94.42;99848.77;107602;1250;82118;-59
2022/12/24 12:26:02;;;;;;;31.30;18.40;;;;;;;5.86;94.55;99854.48;107689;1251;81830;-61
2022/12/24 12:28:52;;;;;;;29.70;18.70;;;;;;;5.93;94.32;99863.54;107669;1251;98382;-57
2022/12/24 12:31:36;;;;;;;29.30;18.60;;;;;;;5.90;94.24;99867.73;107670;1251;88088;-58